createdAt,value
2018-02-25T00:00:15.766Z,-5.65
2018-02-25T00:02:47.656Z,-6.16
2018-02-25T00:05:19.522Z,-6.06
2018-02-25T00:07:50.891Z,-6.18
2018-02-25T00:10:22.749Z,-6.12
2018-02-25T00:12:54.465Z,-6.07
2018-02-25T00:15:26.124Z,-6.28
2018-02-25T00:17:57.491Z,-6.23
2018-02-25T00:20:28.587Z,-6.62
2018-02-25T00:23:00.465Z,-7.01
2018-02-25T00:25:32.625Z,-7.02
2018-02-25T00:28:03.788Z,-6.73
2018-02-25T00:30:34.846Z,-7.46
2018-02-25T00:33:06.956Z,-6.97
2018-02-25T00:35:38.981Z,-7.14
2018-02-25T00:38:10.392Z,-6.78
2018-02-25T00:40:42.094Z,-6.98
2018-02-25T00:43:13.693Z,-6.70
2018-02-25T00:45:45.701Z,-6.66
2018-02-25T00:48:17.196Z,-6.61
2018-02-25T00:50:49.185Z,-6.59
2018-02-25T00:53:20.749Z,-6.64
2018-02-25T00:55:52.576Z,-6.68
2018-02-25T00:58:23.932Z,-6.70
2018-02-25T01:00:55.791Z,-6.86
2018-02-25T01:03:26.875Z,-6.96
2018-02-25T01:05:58.941Z,-6.91
2018-02-25T01:08:30.808Z,-7.04
2018-02-25T01:11:02.749Z,-6.62
2018-02-25T01:13:34.299Z,-6.41
2018-02-25T01:16:06.015Z,-6.67
2018-02-25T01:18:37.376Z,-6.55
2018-02-25T01:21:09.540Z,-6.53
2018-02-25T01:23:40.621Z,-6.44
2018-02-25T01:26:12.379Z,-6.55
2018-02-25T01:28:43.996Z,-6.45
2018-02-25T01:31:15.621Z,-6.64
2018-02-25T01:33:47.369Z,-6.53
2018-02-25T01:36:19.343Z,-6.69
2018-02-25T01:38:50.980Z,-7.37
2018-02-25T01:41:22.802Z,-6.98
2018-02-25T01:43:54.173Z,-7.32
2018-02-25T01:46:26.264Z,-7.24
2018-02-25T01:48:57.909Z,-7.15
2018-02-25T01:51:30.340Z,-7.30
2018-02-25T01:54:01.445Z,-6.89
2018-02-25T01:56:33.143Z,-7.42
2018-02-25T01:59:05.217Z,-7.93
2018-02-25T02:01:36.976Z,-8.34
2018-02-25T02:04:08.370Z,-8.50
2018-02-25T02:06:42.649Z,-8.12
2018-02-25T02:09:14.044Z,-7.88
2018-02-25T02:11:46.358Z,-7.90
2018-02-25T02:14:17.917Z,-8.24
2018-02-25T02:16:49.801Z,-8.18
2018-02-25T02:19:21.863Z,-8.60
2018-02-25T02:21:53.601Z,-8.71
2018-02-25T02:24:25.313Z,-8.60
2018-02-25T02:26:56.773Z,-8.42
2018-02-25T02:29:28.501Z,-8.30
2018-02-25T02:32:00.545Z,-8.37
2018-02-25T02:34:32.294Z,-8.90
2018-02-25T02:37:04.074Z,-8.83
2018-02-25T02:39:35.293Z,-8.84
2018-02-25T02:42:06.803Z,-8.81
2018-02-25T02:44:38.601Z,-8.64
2018-02-25T02:47:10.295Z,-8.76
2018-02-25T02:49:42.006Z,-8.57
2018-02-25T02:52:14.123Z,-8.71
2018-02-25T02:54:45.880Z,-8.80
2018-02-25T02:57:17.514Z,-8.85
2018-02-25T02:59:48.664Z,-8.67
2018-02-25T03:02:21.404Z,-9.07
2018-02-25T03:04:53.069Z,-8.92
2018-02-25T03:07:25.457Z,-9.01
2018-02-25T03:09:57.416Z,-8.81
2018-02-25T03:12:28.571Z,-8.68
2018-02-25T03:15:00.552Z,-9.05
2018-02-25T03:17:32.245Z,-8.70
2018-02-25T03:20:03.840Z,-8.91
2018-02-25T03:22:35.134Z,-9.07
2018-02-25T03:25:07.135Z,-8.94
2018-02-25T03:27:39.036Z,-9.15
2018-02-25T03:30:10.887Z,-9.14
2018-02-25T03:32:41.926Z,-8.99
2018-02-25T03:35:13.293Z,-9.06
2018-02-25T03:37:44.349Z,-8.84
2018-02-25T03:40:16.586Z,-8.76
2018-02-25T03:42:48.127Z,-8.91
2018-02-25T03:45:19.869Z,-8.87
2018-02-25T03:47:52.045Z,-8.91
2018-02-25T03:50:23.454Z,-8.94
2018-02-25T03:52:55.354Z,-8.87
2018-02-25T03:55:26.438Z,-8.57
2018-02-25T03:57:58.120Z,-8.30
2018-02-25T04:00:29.265Z,-8.21
2018-02-25T04:03:01.859Z,-8.52
2018-02-25T04:05:33.396Z,-8.62
2018-02-25T04:08:05.198Z,-8.29
2018-02-25T04:10:36.551Z,-8.31
2018-02-25T04:13:08.173Z,-8.33
2018-02-25T04:15:39.805Z,-8.41
2018-02-25T04:18:12.651Z,-8.32
2018-02-25T04:20:43.744Z,-8.19
2018-02-25T04:23:15.377Z,-8.15
2018-02-25T04:25:47.321Z,-8.84
2018-02-25T04:28:19.105Z,-9.00
2018-02-25T04:30:51.316Z,-8.50
2018-02-25T04:33:23.014Z,-9.24
2018-02-25T04:35:54.713Z,-8.72
2018-02-25T04:38:27.037Z,-9.05
2018-02-25T04:40:58.549Z,-8.60
2018-02-25T04:43:30.280Z,-8.95
2018-02-25T04:46:01.700Z,-8.97
2018-02-25T04:48:33.490Z,-9.03
2018-02-25T04:51:05.110Z,-8.87
2018-02-25T04:53:36.626Z,-8.95
2018-02-25T04:56:09.522Z,-8.87
2018-02-25T04:58:41.221Z,-9.18
2018-02-25T05:01:13.171Z,-8.88
2018-02-25T05:03:44.967Z,-8.98
2018-02-25T05:06:16.083Z,-9.15
2018-02-25T05:08:47.906Z,-9.13
2018-02-25T05:11:19.753Z,-9.22
2018-02-25T05:13:51.325Z,-8.92
2018-02-25T05:16:23.335Z,-8.88
2018-02-25T05:18:55.272Z,-8.97
2018-02-25T05:21:26.817Z,-8.94
2018-02-25T05:23:58.713Z,-9.01
2018-02-25T05:26:30.330Z,-9.00
2018-02-25T05:29:02.649Z,-8.66
2018-02-25T05:31:35.660Z,-8.77
2018-02-25T05:34:07.484Z,-9.11
2018-02-25T05:36:39.681Z,-9.32
2018-02-25T05:39:11.674Z,-9.04
2018-02-25T05:41:43.201Z,-8.89
2018-02-25T05:44:14.758Z,-9.10
2018-02-25T05:46:46.517Z,-9.03
2018-02-25T05:49:18.350Z,-8.93
2018-02-25T05:51:50.027Z,-9.55
2018-02-25T05:54:21.393Z,-8.98
2018-02-25T05:56:53.105Z,-9.14
2018-02-25T05:59:24.278Z,-9.29
2018-02-25T06:01:55.849Z,-9.43
2018-02-25T06:04:27.641Z,-9.48
2018-02-25T06:07:00.062Z,-9.47
2018-02-25T06:09:32.381Z,-9.36
2018-02-25T06:12:04.693Z,-9.47
2018-02-25T06:14:36.356Z,-9.69
2018-02-25T06:17:08.242Z,-9.81
2018-02-25T06:19:39.971Z,-9.84
2018-02-25T06:22:11.543Z,-9.92
2018-02-25T06:24:43.278Z,-10.06
2018-02-25T06:27:15.381Z,-9.93
2018-02-25T06:29:47.182Z,-10.07
2018-02-25T06:32:18.454Z,-10.04
2018-02-25T06:34:50.211Z,-9.95
2018-02-25T06:37:21.801Z,-10.04
2018-02-25T06:39:53.712Z,-10.02
2018-02-25T06:42:25.192Z,-9.85
2018-02-25T06:44:56.961Z,-10.02
2018-02-25T06:47:28.891Z,-9.94
2018-02-25T06:50:00.825Z,-9.81
2018-02-25T06:52:31.930Z,-9.66
2018-02-25T06:55:03.865Z,-9.71
2018-02-25T06:57:35.706Z,-9.56
2018-02-25T07:00:07.717Z,-9.55
2018-02-25T07:02:39.281Z,-9.46
2018-02-25T07:05:10.361Z,-9.30
2018-02-25T07:07:41.793Z,-9.14
2018-02-25T07:10:13.478Z,-9.32
2018-02-25T07:12:44.561Z,-9.13
2018-02-25T07:15:16.097Z,-9.15
2018-02-25T07:17:47.764Z,-9.45
2018-02-25T07:20:18.969Z,-9.25
2018-02-25T07:22:50.349Z,-8.94
2018-02-25T07:25:21.927Z,-8.93
2018-02-25T07:27:53.498Z,-9.04
2018-02-25T07:30:25.024Z,-8.72
2018-02-25T07:32:56.664Z,-8.80
2018-02-25T07:35:28.082Z,-8.49
2018-02-25T07:37:59.761Z,-8.46
2018-02-25T07:40:31.004Z,-8.30
2018-02-25T07:43:02.189Z,-8.27
2018-02-25T07:45:34.545Z,-8.61
2018-02-25T07:48:06.220Z,-8.37
2018-02-25T07:50:37.865Z,-7.89
2018-02-25T07:53:09.929Z,-8.03
2018-02-25T07:55:41.021Z,-8.01
2018-02-25T07:58:12.549Z,-7.55
2018-02-25T08:00:44.789Z,-7.72
2018-02-25T08:03:16.948Z,-7.91
2018-02-25T08:05:48.935Z,-7.49
2018-02-25T08:08:20.128Z,-7.63
2018-02-25T08:10:51.341Z,-7.24
2018-02-25T08:13:22.390Z,-7.68
2018-02-25T08:15:54.245Z,-7.15
2018-02-25T08:18:25.351Z,-7.10
2018-02-25T08:20:57.763Z,-7.11
2018-02-25T08:23:29.727Z,-6.60
2018-02-25T08:26:03.149Z,-7.02
2018-02-25T08:28:34.273Z,-7.23
2018-02-25T08:31:05.505Z,-6.97
2018-02-25T08:33:37.626Z,-6.83
2018-02-25T08:36:09.528Z,-6.48
2018-02-25T08:38:41.137Z,-6.82
2018-02-25T08:41:12.558Z,-6.84
2018-02-25T08:43:43.697Z,-6.62
2018-02-25T08:46:15.765Z,-6.39
2018-02-25T08:48:47.330Z,-6.83
2018-02-25T08:51:18.442Z,-6.65
2018-02-25T08:53:49.560Z,-5.85
2018-02-25T08:56:20.790Z,-6.06
2018-02-25T08:58:51.930Z,-7.01
2018-02-25T09:01:23.380Z,-6.25
2018-02-25T09:03:54.435Z,-6.02
2018-02-25T09:06:26.777Z,-5.77
2018-02-25T09:09:00.104Z,-5.67
2018-02-25T09:11:31.401Z,-5.74
2018-02-25T09:14:02.590Z,-5.71
2018-02-25T09:16:33.750Z,-5.54
2018-02-25T09:19:05.211Z,-5.67
2018-02-25T09:21:36.386Z,-5.31
2018-02-25T09:24:07.849Z,-5.15
2018-02-25T09:26:38.990Z,-4.95
2018-02-25T09:29:10.754Z,-6.07
2018-02-25T09:31:41.843Z,-5.21
2018-02-25T09:34:13.577Z,-5.01
2018-02-25T09:36:44.909Z,-4.87
2018-02-25T09:39:16.021Z,-5.00
2018-02-25T09:41:47.113Z,-4.66
2018-02-25T09:44:18.280Z,-4.89
2018-02-25T09:46:50.133Z,-4.83
2018-02-25T09:49:22.480Z,-4.79
2018-02-25T09:51:53.540Z,-4.57
2018-02-25T09:54:25.150Z,-4.67
2018-02-25T09:56:56.621Z,-4.52
2018-02-25T09:59:27.824Z,-4.46
2018-02-25T10:02:04.373Z,-4.40
2018-02-25T10:04:35.833Z,-4.19
2018-02-25T10:07:07.813Z,-4.78
2018-02-25T10:09:38.901Z,-4.15
2018-02-25T10:12:10.417Z,-4.15
2018-02-25T10:14:41.605Z,-4.20
2018-02-25T10:17:13.095Z,-4.68
2018-02-25T10:19:44.222Z,-4.55
2018-02-25T10:22:15.671Z,-4.05
2018-02-25T10:24:49.709Z,-4.10
2018-02-25T10:27:20.905Z,-3.77
2018-02-25T10:29:52.365Z,-3.68
2018-02-25T10:32:23.370Z,-4.81
2018-02-25T10:34:54.947Z,-4.32
2018-02-25T10:37:26.101Z,-3.86
2018-02-25T10:39:58.037Z,-4.07
2018-02-25T10:42:30.617Z,-3.50
2018-02-25T10:45:01.664Z,-3.59
2018-02-25T10:47:32.794Z,-3.51
2018-02-25T10:50:04.276Z,-3.55
2018-02-25T10:52:36.532Z,-3.14
2018-02-25T10:55:08.911Z,-3.32
2018-02-25T10:57:40.052Z,-3.35
2018-02-25T11:00:11.083Z,-3.94
2018-02-25T11:02:44.281Z,-3.51
2018-02-25T11:05:15.374Z,-3.31
2018-02-25T11:07:46.597Z,-2.96
2018-02-25T11:10:28.878Z,-2.94
2018-02-25T11:13:00.794Z,-2.88
2018-02-25T11:15:32.244Z,-3.55
2018-02-25T11:18:03.266Z,-3.16
2018-02-25T11:20:34.074Z,-3.54
2018-02-25T11:23:05.290Z,-3.18
2018-02-25T11:25:36.340Z,-3.75
2018-02-25T11:28:07.444Z,-3.42
2018-02-25T11:30:38.731Z,-3.34
2018-02-25T11:33:09.570Z,-2.88
2018-02-25T11:35:40.734Z,-2.48
2018-02-25T11:38:12.277Z,-3.02
2018-02-25T11:40:43.166Z,-2.94
2018-02-25T11:43:15.689Z,-2.94
2018-02-25T11:45:46.629Z,-3.48
2018-02-25T11:48:17.489Z,-3.47
2018-02-25T11:50:48.692Z,-3.03
2018-02-25T11:53:19.621Z,-3.50
2018-02-25T11:55:50.719Z,-3.04
2018-02-25T11:58:21.968Z,-2.83
2018-02-25T12:00:52.702Z,-2.56
2018-02-25T12:03:24.044Z,-3.41
2018-02-25T12:05:55.067Z,-2.67
2018-02-25T12:08:25.846Z,-2.67
2018-02-25T12:10:57.418Z,-2.32
2018-02-25T12:13:28.268Z,-2.52
2018-02-25T12:16:00.513Z,-2.30
2018-02-25T12:18:32.181Z,-2.06
2018-02-25T12:21:02.950Z,-1.87
2018-02-25T12:23:33.821Z,-1.99
2018-02-25T12:26:09.659Z,-1.97
2018-02-25T12:28:41.985Z,-1.79
2018-02-25T12:31:16.479Z,-1.89
2018-02-25T12:33:48.627Z,-2.47
2018-02-25T12:36:20.805Z,-2.46
2018-02-25T12:38:52.126Z,-2.50
2018-02-25T12:41:26.699Z,-2.30
2018-02-25T12:43:57.653Z,-1.96
2018-02-25T12:46:28.829Z,-1.67
2018-02-25T12:48:59.578Z,-2.02
2018-02-25T12:51:30.663Z,-1.90
2018-02-25T12:54:01.497Z,-1.88
2018-02-25T12:56:32.342Z,-1.89
2018-02-25T12:59:03.429Z,-1.79
2018-02-25T13:01:34.968Z,-1.83
2018-02-25T13:04:06.001Z,-1.66
2018-02-25T13:06:37.221Z,-1.83
2018-02-25T13:09:08.193Z,-1.50
2018-02-25T13:11:39.082Z,-2.39
2018-02-25T13:14:10.014Z,-2.12
2018-02-25T13:16:45.365Z,-1.96
2018-02-25T13:19:16.621Z,-1.60
2018-02-25T13:21:47.501Z,-1.49
2018-02-25T13:24:18.333Z,-1.56
2018-02-25T13:26:49.273Z,-1.78
2018-02-25T13:29:20.153Z,-2.31
2018-02-25T13:31:50.985Z,-2.34
2018-02-25T13:34:22.068Z,-2.14
2018-02-25T13:36:52.928Z,-1.89
2018-02-25T13:39:28.421Z,-2.34
2018-02-25T13:41:59.822Z,-2.35
2018-02-25T13:44:34.675Z,-3.10
2018-02-25T13:47:08.723Z,-3.13
2018-02-25T13:49:39.520Z,-2.52
2018-02-25T13:52:10.590Z,-2.61
2018-02-25T13:54:41.990Z,-2.86
2018-02-25T13:57:13.291Z,-3.44
2018-02-25T13:59:44.118Z,-2.97
2018-02-25T14:02:15.726Z,-2.81
2018-02-25T14:04:48.498Z,-3.50
2018-02-25T14:07:19.333Z,-3.10
2018-02-25T14:09:50.473Z,-3.17
2018-02-25T14:12:21.625Z,-2.96
2018-02-25T14:14:52.393Z,-2.96
2018-02-25T14:17:23.281Z,-3.35
2018-02-25T14:19:54.884Z,-3.00
2018-02-25T14:22:25.970Z,-3.18
2018-02-25T14:24:57.537Z,-2.83
2018-02-25T14:27:28.593Z,-2.66
2018-02-25T14:29:59.770Z,-2.85
2018-02-25T14:32:30.719Z,-2.71
2018-02-25T14:35:01.848Z,-2.84
2018-02-25T14:37:33.041Z,-3.11
2018-02-25T14:40:05.207Z,-3.18
2018-02-25T14:42:37.028Z,-3.00
2018-02-25T14:45:08.132Z,-2.85
2018-02-25T14:47:39.166Z,-3.12
2018-02-25T14:50:10.029Z,-3.26
2018-02-25T14:52:41.204Z,-3.30
2018-02-25T14:55:12.457Z,-3.34
2018-02-25T14:57:43.522Z,-3.16
2018-02-25T15:00:14.684Z,-3.26
2018-02-25T15:02:46.486Z,-3.38
2018-02-25T15:05:17.634Z,-3.17
2018-02-25T15:07:49.022Z,-3.02
2018-02-25T15:10:20.189Z,-3.10
2018-02-25T15:12:51.303Z,-3.14
2018-02-25T15:15:22.450Z,-3.23
2018-02-25T15:17:53.720Z,-3.37
2018-02-25T15:20:25.907Z,-3.38
2018-02-25T15:22:56.986Z,-3.57
2018-02-25T15:25:28.114Z,-3.32
2018-02-25T15:27:59.610Z,-3.41
2018-02-25T15:30:30.779Z,-3.50
2018-02-25T15:33:01.997Z,-3.48
2018-02-25T15:35:32.976Z,-3.65
2018-02-25T15:38:04.099Z,-3.80
2018-02-25T15:40:35.549Z,-3.74
2018-02-25T15:43:06.638Z,-3.69
2018-02-25T15:45:37.729Z,-3.74
2018-02-25T15:48:09.123Z,-3.77
2018-02-25T15:50:40.249Z,-3.74
2018-02-25T15:53:12.528Z,-3.64
2018-02-25T15:55:43.902Z,-3.97
2018-02-25T15:58:15.577Z,-3.92
2018-02-25T16:00:47.109Z,-3.74
2018-02-25T16:03:18.233Z,-3.88
2018-02-25T16:05:50.054Z,-3.74
2018-02-25T16:08:21.425Z,-3.62
2018-02-25T16:10:52.568Z,-4.10
2018-02-25T16:13:23.699Z,-3.90
2018-02-25T16:15:55.812Z,-3.87
2018-02-25T16:18:27.589Z,-3.96
2018-02-25T16:21:00.075Z,-4.18
2018-02-25T16:23:31.740Z,-4.01
2018-02-25T16:26:03.321Z,-4.10
2018-02-25T16:28:34.725Z,-4.18
2018-02-25T16:31:05.929Z,-4.22
2018-02-25T16:33:37.093Z,-4.17
2018-02-25T16:36:08.518Z,-4.45
2018-02-25T16:38:39.681Z,-4.39
2018-02-25T16:41:11.066Z,-4.39
2018-02-25T16:43:42.225Z,-4.21
2018-02-25T16:46:13.358Z,-4.24
2018-02-25T16:48:44.689Z,-4.44
2018-02-25T16:51:16.261Z,-4.18
2018-02-25T16:53:47.354Z,-4.17
2018-02-25T16:56:18.813Z,-4.49
2018-02-25T16:58:49.965Z,-4.43
2018-02-25T17:01:21.053Z,-4.36
2018-02-25T17:03:52.472Z,-4.36
2018-02-25T17:06:24.608Z,-4.45
2018-02-25T17:08:56.117Z,-4.46
2018-02-25T17:11:27.515Z,-4.62
2018-02-25T17:13:58.689Z,-4.67
2018-02-25T17:16:30.224Z,-4.73
2018-02-25T17:19:01.374Z,-4.72
2018-02-25T17:21:32.492Z,-4.53
2018-02-25T17:24:04.074Z,-4.71
2018-02-25T17:26:35.119Z,-4.67
2018-02-25T17:29:06.595Z,-4.97
2018-02-25T17:31:38.482Z,-4.73
2018-02-25T17:34:09.627Z,-4.75
2018-02-25T17:36:41.754Z,-4.54
2018-02-25T17:39:15.234Z,-4.32
2018-02-25T17:41:46.822Z,-4.45
2018-02-25T17:44:18.009Z,-4.40
2018-02-25T17:46:50.017Z,-4.40
2018-02-25T17:49:21.623Z,-4.69
2018-02-25T17:51:52.836Z,-4.24
2018-02-25T17:54:24.052Z,-4.46
2018-02-25T17:56:55.692Z,-4.70
2018-02-25T17:59:26.835Z,-4.69
2018-02-25T18:01:59.802Z,-4.91
2018-02-25T18:04:30.946Z,-4.72
2018-02-25T18:07:02.314Z,-4.90
2018-02-25T18:09:33.507Z,-5.10
2018-02-25T18:12:04.976Z,-4.96
2018-02-25T18:14:36.373Z,-5.14
2018-02-25T18:17:08.130Z,-4.86
2018-02-25T18:19:39.386Z,-5.30
2018-02-25T18:22:10.857Z,-4.89
2018-02-25T18:27:23.773Z,-5.07
2018-02-25T18:29:54.913Z,-5.26
2018-02-25T18:32:26.097Z,-5.43
2018-02-25T18:34:57.538Z,-5.28
2018-02-25T18:37:28.679Z,-5.58
2018-02-25T18:39:59.920Z,-5.66
2018-02-25T18:42:31.678Z,-5.57
2018-02-25T18:45:02.925Z,-5.43
2018-02-25T18:47:34.333Z,-5.34
2018-02-25T18:50:05.534Z,-5.89
2018-02-25T18:52:36.643Z,-5.52
2018-02-25T18:55:08.085Z,-5.51
2018-02-25T18:57:39.304Z,-5.82
2018-02-25T19:00:10.634Z,-6.17
2018-02-25T19:02:42.354Z,-6.22
2018-02-25T19:05:13.445Z,-6.21
2018-02-25T19:07:44.922Z,-6.46
2018-02-25T19:10:16.751Z,-6.26
2018-02-25T19:12:48.766Z,-6.02
2018-02-25T19:15:20.254Z,-6.52
2018-02-25T19:20:29.756Z,-6.05
2018-02-25T19:23:00.928Z,-6.52
2018-02-25T19:25:32.046Z,-6.38
2018-02-25T19:28:04.174Z,-6.18
2018-02-25T19:30:35.361Z,-6.26
2018-02-25T19:33:06.501Z,-6.52
2018-02-25T19:35:41.756Z,-6.57
2018-02-25T19:40:22.320Z,-6.48
2018-02-25T19:42:54.608Z,-6.91
2018-02-25T19:45:25.771Z,-7.09
2018-02-25T19:47:56.925Z,-7.17
2018-02-25T19:50:28.357Z,-6.91
2018-02-25T19:52:59.641Z,-6.64
2018-02-25T19:55:31.041Z,-6.62
2018-02-25T19:58:02.205Z,-6.84
2018-02-25T20:00:33.381Z,-6.97
2018-02-25T20:03:04.730Z,-6.89
2018-02-25T20:05:36.441Z,-6.72
2018-02-25T20:08:08.659Z,-6.86
2018-02-25T20:10:40.177Z,-6.47
2018-02-25T20:13:12.297Z,-6.68
2018-02-25T20:15:44.210Z,-6.62
2018-02-25T20:18:15.740Z,-6.98
2018-02-25T20:20:46.989Z,-6.91
2018-02-25T20:23:18.469Z,-7.13
2018-02-25T20:25:55.070Z,-6.62
2018-02-25T20:28:26.490Z,-7.13
2018-02-25T20:30:58.216Z,-7.12
2018-02-25T20:33:29.898Z,-7.08
2018-02-25T20:36:01.391Z,-7.48
2018-02-25T20:38:33.042Z,-7.02
2018-02-25T20:41:05.478Z,-7.20
2018-02-25T20:43:37.127Z,-7.13
2018-02-25T20:46:09.045Z,-6.89
2018-02-25T20:48:40.995Z,-7.40
2018-02-25T20:51:12.169Z,-7.15
2018-02-25T20:53:43.277Z,-7.26
2018-02-25T20:56:14.778Z,-7.29
2018-02-25T20:58:45.876Z,-7.31
2018-02-25T21:01:17.354Z,-7.62
2018-02-25T21:03:48.969Z,-7.66
2018-02-25T21:06:20.653Z,-7.73
2018-02-25T21:08:52.129Z,-7.77
2018-02-25T21:11:24.509Z,-7.76
2018-02-25T21:13:55.626Z,-7.65
2018-02-25T21:16:27.029Z,-8.14
2018-02-25T21:18:58.597Z,-7.99
2018-02-25T21:21:29.987Z,-8.18
2018-02-25T21:24:02.650Z,-8.51
2018-02-25T21:26:33.920Z,-8.38
2018-02-25T21:29:06.092Z,-8.58
2018-02-25T21:31:37.226Z,-8.69
2018-02-25T21:34:09.873Z,-8.62
2018-02-25T21:36:41.006Z,-8.49
2018-02-25T21:39:12.418Z,-8.04
2018-02-25T21:41:43.595Z,-8.20
2018-02-25T21:44:15.131Z,-8.76
2018-02-25T21:46:46.487Z,-8.90
2018-02-25T21:49:18.025Z,-8.77
2018-02-25T21:51:49.114Z,-8.22
2018-02-25T21:54:28.517Z,-8.43
2018-02-25T21:58:04.446Z,-7.96
2018-02-25T22:00:40.593Z,-8.55
2018-02-25T22:03:44.933Z,-8.70
2018-02-25T22:06:17.627Z,-8.50
2018-02-25T22:08:48.803Z,-8.46
2018-02-25T22:11:22.425Z,-8.13
2018-02-25T22:13:53.770Z,-8.44
2018-02-25T22:16:25.309Z,-8.46
2018-02-25T22:18:56.455Z,-8.43
2018-02-25T22:21:28.544Z,-8.74
2018-02-25T22:23:59.669Z,-8.41
2018-02-25T22:26:31.378Z,-8.59
2018-02-25T22:29:03.345Z,-8.16
2018-02-25T22:31:35.168Z,-8.57
2018-02-25T22:34:06.881Z,-8.65
2018-02-25T22:36:39.049Z,-9.27
2018-02-25T22:39:10.794Z,-9.64
2018-02-25T22:41:42.781Z,-9.77
2018-02-25T22:44:14.510Z,-9.91
2018-02-25T22:46:46.014Z,-9.91
2018-02-25T22:49:17.862Z,-9.92
2018-02-25T22:51:49.708Z,-9.70
2018-02-25T22:54:21.922Z,-9.58
2018-02-25T22:56:53.486Z,-9.41
2018-02-25T22:59:24.677Z,-9.39
2018-02-25T23:01:56.115Z,-9.27
2018-02-25T23:04:27.926Z,-9.24
2018-02-25T23:06:59.681Z,-9.34
2018-02-25T23:09:31.545Z,-9.35
2018-02-25T23:12:02.954Z,-8.93
2018-02-25T23:14:34.599Z,-8.94
2018-02-25T23:17:05.661Z,-9.24
2018-02-25T23:19:36.805Z,-8.94
2018-02-25T23:22:08.685Z,-9.42
2018-02-25T23:24:40.214Z,-8.70
2018-02-25T23:27:12.049Z,-8.74
2018-02-25T23:29:43.849Z,-8.84
2018-02-25T23:32:18.296Z,-9.07
2018-02-25T23:34:50.341Z,-9.25
2018-02-25T23:37:21.797Z,-9.04
2018-02-25T23:39:53.528Z,-9.09
2018-02-25T23:42:25.221Z,-9.12
2018-02-25T23:44:56.935Z,-9.04
2018-02-25T23:47:28.889Z,-8.87
2018-02-25T23:50:00.038Z,-8.78
2018-02-25T23:52:31.659Z,-8.76
2018-02-25T23:55:03.641Z,-8.90
2018-02-25T23:57:35.653Z,-9.21
